createdAt,value
2022-11-22T00:00:44.145Z,13.00
2022-11-22T00:03:11.204Z,13.90
2022-11-22T00:05:38.382Z,14.73
2022-11-22T00:08:06.359Z,14.77
2022-11-22T00:10:34.057Z,14.07
2022-11-22T00:13:02.088Z,13.57
2022-11-22T00:15:29.895Z,15.40
2022-11-22T00:17:57.467Z,13.97
2022-11-22T00:20:24.691Z,13.90
2022-11-22T00:22:51.951Z,14.10
2022-11-22T00:25:19.097Z,13.47
2022-11-22T00:27:46.096Z,13.70
2022-11-22T00:30:13.327Z,14.43
2022-11-22T00:32:40.353Z,13.63
2022-11-22T00:35:08.075Z,13.90
2022-11-22T00:37:35.131Z,14.27
2022-11-22T00:40:02.463Z,13.93
2022-11-22T00:42:29.480Z,13.33
2022-11-22T00:44:56.588Z,13.50
2022-11-22T00:47:23.633Z,14.00
2022-11-22T00:49:50.734Z,12.57
2022-11-22T00:52:17.750Z,14.20
2022-11-22T00:54:48.839Z,13.30
2022-11-22T00:57:18.562Z,12.97
2022-11-22T00:59:45.556Z,13.57
2022-11-22T01:02:12.548Z,14.23
2022-11-22T01:04:39.585Z,13.67
2022-11-22T01:07:06.739Z,12.20
2022-11-22T01:09:33.789Z,13.07
2022-11-22T01:12:00.825Z,13.90
2022-11-22T01:14:27.790Z,13.20
2022-11-22T01:16:54.795Z,12.43
2022-11-22T01:19:21.784Z,11.93
2022-11-22T01:21:48.775Z,13.67
2022-11-22T01:24:15.852Z,11.93
2022-11-22T01:26:43.221Z,12.53
2022-11-22T01:29:10.230Z,12.37
2022-11-22T01:31:37.225Z,12.23
2022-11-22T01:34:06.305Z,12.50
2022-11-22T01:36:33.309Z,12.40
2022-11-22T01:39:00.335Z,11.67
2022-11-22T01:41:27.452Z,13.53
2022-11-22T01:43:54.469Z,13.60
2022-11-22T01:46:39.296Z,14.10
2022-11-22T01:49:32.339Z,11.43
2022-11-22T01:52:10.044Z,12.43
2022-11-22T01:54:43.567Z,12.17
2022-11-22T01:57:19.914Z,11.87
2022-11-22T01:59:57.983Z,11.13
2022-11-22T02:02:26.030Z,12.53
2022-11-22T02:04:57.030Z,11.93
2022-11-22T02:07:32.515Z,12.07
2022-11-22T02:09:59.590Z,12.23
2022-11-22T02:12:31.838Z,11.97
2022-11-22T02:14:59.478Z,12.40
2022-11-22T02:17:27.381Z,12.27
2022-11-22T02:19:56.570Z,12.80
2022-11-22T02:23:01.608Z,12.50
2022-11-22T02:25:36.566Z,11.70
2022-11-22T02:28:12.434Z,11.00
2022-11-22T02:30:41.806Z,12.27
2022-11-22T02:33:09.498Z,12.70
2022-11-22T02:35:36.616Z,11.77
2022-11-22T02:38:14.025Z,12.27
2022-11-22T02:41:06.945Z,12.10
2022-11-22T02:43:42.072Z,11.80
2022-11-22T02:46:16.633Z,13.03
2022-11-22T02:48:45.083Z,13.33
2022-11-22T02:51:17.357Z,12.33
2022-11-22T02:53:48.739Z,12.83
2022-11-22T02:56:16.856Z,11.93
2022-11-22T02:58:44.697Z,12.47
2022-11-22T03:01:13.329Z,12.70
2022-11-22T03:03:40.403Z,11.77
2022-11-22T03:06:07.444Z,12.60
2022-11-22T03:08:34.524Z,12.30
2022-11-22T03:11:01.617Z,12.77
2022-11-22T03:13:28.625Z,12.60
2022-11-22T03:15:55.706Z,13.20
2022-11-22T03:18:22.795Z,13.27
2022-11-22T03:20:49.828Z,14.20
2022-11-22T03:23:16.963Z,14.10
2022-11-22T03:25:44.135Z,13.70
2022-11-22T03:28:11.120Z,13.07
2022-11-22T03:30:42.380Z,13.13
2022-11-22T03:33:09.733Z,12.77
2022-11-22T03:35:39.586Z,13.70
2022-11-22T03:38:07.098Z,13.97
2022-11-22T03:40:34.329Z,14.03
2022-11-22T03:43:02.575Z,14.97
2022-11-22T03:45:30.572Z,14.60
2022-11-22T03:47:58.683Z,13.13
2022-11-22T03:50:26.173Z,14.03
2022-11-22T03:52:53.150Z,14.20
2022-11-22T03:55:20.317Z,14.97
2022-11-22T03:57:47.363Z,14.50
2022-11-22T04:00:15.419Z,13.83
2022-11-22T04:02:42.380Z,15.60
2022-11-22T04:05:09.634Z,14.53
2022-11-22T04:07:36.889Z,14.37
2022-11-22T04:10:05.899Z,15.03
2022-11-22T04:12:33.236Z,14.80
2022-11-22T04:15:09.223Z,14.60
2022-11-22T04:17:45.943Z,15.87
2022-11-22T04:20:42.955Z,15.80
2022-11-22T04:23:20.128Z,15.73
2022-11-22T04:25:53.139Z,14.60
2022-11-22T04:29:08.284Z,15.93
2022-11-22T04:31:31.257Z,15.27
2022-11-22T04:33:58.231Z,15.23
2022-11-22T04:36:25.210Z,15.70
2022-11-22T04:38:52.171Z,15.97
2022-11-22T04:41:19.167Z,15.90
2022-11-22T04:44:04.786Z,15.83
2022-11-22T04:46:31.779Z,16.00
2022-11-22T04:48:58.790Z,14.50
2022-11-22T04:51:47.656Z,16.27
2022-11-22T04:54:14.800Z,16.47
2022-11-22T04:56:41.866Z,16.47
2022-11-22T04:59:09.087Z,16.33
2022-11-22T05:01:36.157Z,16.10
2022-11-22T05:04:03.284Z,16.00
2022-11-22T05:06:30.292Z,15.17
2022-11-22T05:08:57.501Z,16.40
2022-11-22T05:11:24.642Z,16.17
2022-11-22T05:13:51.649Z,16.53
2022-11-22T05:16:18.641Z,15.70
2022-11-22T05:18:58.999Z,16.40
2022-11-22T05:21:28.852Z,16.10
2022-11-22T05:23:56.258Z,14.40
2022-11-22T05:26:35.814Z,15.20
2022-11-22T05:29:10.138Z,14.87
2022-11-22T05:31:39.754Z,17.33
2022-11-22T05:34:06.758Z,16.50
2022-11-22T05:36:34.997Z,16.03
2022-11-22T05:39:03.192Z,15.87
2022-11-22T05:41:30.602Z,17.67
2022-11-22T05:44:00.700Z,16.40
2022-11-22T05:46:30.287Z,16.43
2022-11-22T05:48:58.486Z,17.23
2022-11-22T05:51:33.977Z,16.97
2022-11-22T05:54:02.758Z,17.50
2022-11-22T05:56:29.918Z,16.90
2022-11-22T05:58:56.903Z,17.03
2022-11-22T06:01:25.493Z,15.53
2022-11-22T06:03:55.808Z,17.20
2022-11-22T06:06:23.241Z,17.50
2022-11-22T06:08:51.620Z,16.57
2022-11-22T06:11:25.576Z,18.50
2022-11-22T06:13:57.792Z,17.07
2022-11-22T06:16:27.033Z,18.70
2022-11-22T06:18:54.985Z,18.37
2022-11-22T06:21:27.857Z,16.87
2022-11-22T06:23:55.945Z,16.73
2022-11-22T06:26:24.667Z,18.23
2022-11-22T06:28:56.611Z,18.17
2022-11-22T06:31:30.457Z,23.47
2022-11-22T06:34:19.414Z,17.23
2022-11-22T06:36:46.794Z,18.33
2022-11-22T06:39:13.944Z,18.23
2022-11-22T06:41:58.936Z,17.40
2022-11-22T06:44:25.985Z,22.27
2022-11-22T06:46:53.088Z,18.60
2022-11-22T06:49:20.078Z,19.27
2022-11-22T06:51:47.137Z,18.43
2022-11-22T06:54:15.094Z,18.83
2022-11-22T06:56:42.089Z,18.03
2022-11-22T06:59:09.757Z,18.43
2022-11-22T07:01:38.202Z,18.73
2022-11-22T07:04:06.182Z,18.13
2022-11-22T07:06:38.531Z,18.83
2022-11-22T07:09:09.776Z,17.30
2022-11-22T07:11:37.950Z,18.43
2022-11-22T07:14:08.723Z,19.00
2022-11-22T07:16:38.944Z,18.77
2022-11-22T07:19:06.769Z,18.53
2022-11-22T07:21:35.036Z,19.00
2022-11-22T07:24:03.800Z,19.43
2022-11-22T07:26:31.318Z,17.97
2022-11-22T07:29:01.685Z,17.63
2022-11-22T07:31:28.813Z,17.03
2022-11-22T07:34:00.861Z,17.07
2022-11-22T07:36:30.223Z,18.47
2022-11-22T07:38:57.233Z,18.73
2022-11-22T07:41:24.373Z,17.57
2022-11-22T07:43:53.022Z,17.70
2022-11-22T07:46:31.325Z,18.43
2022-11-22T07:49:01.416Z,18.20
2022-11-22T07:51:29.557Z,16.73
2022-11-22T07:53:57.598Z,18.10
2022-11-22T07:56:25.036Z,18.37
2022-11-22T07:58:52.402Z,18.03
2022-11-22T08:01:20.868Z,18.77
2022-11-22T08:03:48.181Z,17.57
2022-11-22T08:06:16.436Z,17.83
2022-11-22T08:08:44.674Z,18.73
2022-11-22T08:11:12.378Z,18.80
2022-11-22T08:13:39.906Z,17.63
2022-11-22T08:16:36.363Z,18.07
2022-11-22T08:19:03.612Z,17.50
2022-11-22T08:21:30.819Z,18.03
2022-11-22T08:24:01.664Z,17.93
2022-11-22T08:26:28.669Z,18.53
2022-11-22T08:28:55.747Z,19.60
2022-11-22T08:31:22.953Z,18.50
2022-11-22T08:33:53.706Z,20.40
2022-11-22T08:36:21.099Z,18.57
2022-11-22T08:38:48.211Z,20.27
2022-11-22T08:41:15.722Z,20.13
2022-11-22T08:43:42.704Z,19.37
2022-11-22T08:46:09.788Z,20.97
2022-11-22T08:48:38.604Z,20.07
2022-11-22T08:51:10.366Z,21.00
2022-11-22T08:53:41.569Z,19.57
2022-11-22T08:56:13.856Z,20.07
2022-11-22T08:58:41.861Z,19.33
2022-11-22T09:01:14.318Z,19.13
2022-11-22T09:03:42.869Z,19.63
2022-11-22T09:11:52.320Z,19.50
2022-11-22T09:14:19.354Z,20.10
2022-11-22T09:16:46.405Z,19.87
2022-11-22T09:19:13.518Z,17.73
2022-11-22T09:21:40.588Z,18.87
2022-11-22T09:24:07.669Z,20.30
2022-11-22T09:26:34.863Z,18.57
2022-11-22T09:29:01.854Z,18.97
2022-11-22T09:31:31.871Z,22.23
2022-11-22T09:33:58.911Z,19.77
2022-11-22T09:36:26.647Z,19.93
2022-11-22T09:38:56.243Z,20.67
2022-11-22T09:42:01.648Z,19.40
2022-11-22T09:45:43.137Z,20.53
2022-11-22T09:48:44.544Z,19.60
2022-11-22T09:51:34.320Z,20.53
2022-11-22T09:54:29.376Z,19.23
2022-11-22T09:57:01.759Z,20.37
2022-11-22T09:59:37.414Z,21.63
2022-11-22T10:02:21.311Z,21.00
2022-11-22T10:05:00.515Z,19.97
2022-11-22T10:07:54.801Z,22.63
2022-11-22T10:10:39.785Z,19.93
2022-11-22T10:13:19.427Z,20.80
2022-11-22T10:15:58.765Z,21.50
2022-11-22T10:18:44.180Z,19.17
2022-11-22T10:21:15.361Z,21.63
2022-11-22T10:23:44.641Z,20.37
2022-11-22T10:26:34.683Z,22.40
2022-11-22T10:29:32.270Z,20.67
2022-11-22T10:32:20.580Z,22.13
2022-11-22T10:35:16.983Z,22.20
2022-11-22T10:38:08.778Z,21.63
2022-11-22T10:41:10.438Z,20.27
2022-11-22T10:44:04.657Z,21.33
2022-11-22T10:47:08.705Z,21.63
2022-11-22T10:50:05.986Z,21.43
2022-11-22T10:53:00.412Z,22.03
2022-11-22T10:56:16.142Z,21.20
2022-11-22T10:59:32.789Z,21.63
2022-11-22T11:02:59.645Z,21.70
2022-11-22T11:06:21.053Z,20.43
2022-11-22T11:11:43.928Z,21.60
2022-11-22T11:14:37.827Z,23.10
2022-11-22T11:17:06.948Z,21.30
2022-11-22T11:19:43.517Z,22.23
2022-11-22T11:22:30.474Z,20.97
2022-11-22T11:25:43.205Z,22.73
2022-11-22T11:28:23.652Z,22.23
2022-11-22T11:31:06.525Z,22.27
2022-11-22T11:33:40.501Z,20.80
2022-11-22T11:36:27.992Z,21.43
2022-11-22T11:38:58.053Z,21.53
2022-11-22T11:41:40.263Z,21.33
2022-11-22T11:44:36.631Z,21.67
2022-11-22T11:47:30.824Z,21.13
2022-11-22T11:49:57.825Z,20.90
2022-11-22T11:52:26.714Z,21.63
2022-11-22T11:55:00.561Z,21.00
2022-11-22T11:57:31.309Z,22.03
2022-11-22T12:00:02.166Z,19.93
2022-11-22T12:02:40.305Z,21.20
2022-11-22T12:05:13.590Z,20.83
2022-11-22T12:07:47.732Z,20.80
2022-11-22T12:11:01.982Z,21.90
2022-11-22T12:14:19.629Z,19.73
2022-11-22T12:17:01.517Z,21.13
2022-11-22T12:19:35.036Z,20.43
2022-11-22T12:22:50.368Z,21.93
2022-11-22T12:25:33.565Z,20.53
2022-11-22T12:28:20.522Z,20.97
2022-11-22T12:30:57.433Z,21.20
2022-11-22T12:33:40.764Z,20.60
2022-11-22T12:36:32.497Z,20.30
2022-11-22T12:39:04.098Z,18.97
2022-11-22T12:41:33.509Z,20.03
2022-11-22T12:44:06.599Z,20.27
2022-11-22T12:46:43.732Z,20.17
2022-11-22T12:49:55.796Z,20.03
2022-11-22T12:52:52.840Z,20.53
2022-11-22T12:55:53.994Z,19.60
2022-11-22T12:58:56.157Z,18.67
2022-11-22T13:01:50.645Z,19.73
2022-11-22T13:04:42.866Z,19.20
2022-11-22T13:07:36.796Z,18.67
2022-11-22T13:10:40.370Z,19.03
2022-11-22T13:13:29.709Z,18.30
2022-11-22T13:16:01.825Z,20.27
2022-11-22T13:18:36.830Z,21.30
2022-11-22T13:21:44.028Z,18.57
2022-11-22T13:25:08.315Z,19.17
2022-11-22T13:27:48.889Z,18.63
2022-11-22T13:30:24.634Z,20.20
2022-11-22T13:32:56.465Z,20.03
2022-11-22T13:35:38.311Z,19.07
2022-11-22T13:38:16.435Z,20.73
2022-11-22T13:41:23.130Z,20.37
2022-11-22T13:43:59.360Z,18.90
2022-11-22T13:46:56.130Z,20.60
2022-11-22T13:49:48.621Z,18.77
2022-11-22T13:52:16.052Z,18.90
2022-11-22T13:55:02.786Z,20.60
2022-11-22T13:57:36.836Z,19.00
2022-11-22T14:00:15.774Z,20.87
2022-11-22T14:03:11.829Z,20.83
2022-11-22T14:05:41.886Z,19.50
2022-11-22T14:08:40.369Z,19.67
2022-11-22T14:11:40.876Z,20.43
2022-11-22T14:14:34.084Z,20.27
2022-11-22T14:17:49.560Z,18.80
2022-11-22T14:20:40.149Z,20.77
2022-11-22T14:24:09.709Z,20.27
2022-11-22T14:26:59.627Z,21.50
2022-11-22T14:29:53.550Z,21.97
2022-11-22T14:32:38.018Z,21.87
2022-11-22T14:35:04.821Z,21.83
2022-11-22T14:37:34.942Z,21.67
2022-11-22T14:40:07.702Z,22.87
2022-11-22T14:42:37.727Z,22.07
2022-11-22T14:45:14.156Z,23.13
2022-11-22T14:48:01.740Z,21.63
2022-11-22T14:50:37.777Z,22.13
2022-11-22T14:53:29.409Z,22.20
2022-11-22T14:56:34.913Z,20.87
2022-11-22T14:59:11.889Z,21.10
2022-11-22T15:02:34.242Z,22.20
2022-11-22T15:09:19.918Z,20.77
2022-11-22T15:09:20.091Z,20.03
2022-11-22T15:12:07.258Z,21.27
2022-11-22T15:57:37.930Z,23.23
2022-11-22T16:00:24.408Z,22.27
2022-11-22T16:03:01.480Z,23.43
2022-11-22T16:06:07.396Z,22.67
2022-11-22T16:08:25.409Z,22.30
2022-11-22T16:10:56.584Z,24.70
2022-11-22T16:13:32.568Z,22.87
2022-11-22T16:16:11.620Z,24.43
2022-11-22T16:18:43.743Z,23.23
2022-11-22T16:21:13.696Z,24.07
2022-11-22T16:23:45.641Z,23.37
2022-11-22T16:26:19.029Z,24.53
2022-11-22T16:28:52.440Z,24.57
2022-11-22T16:31:31.994Z,23.57
2022-11-22T16:33:59.750Z,22.77
2022-11-22T16:36:29.813Z,22.77
2022-11-22T16:38:56.914Z,25.43
2022-11-22T16:41:29.328Z,24.93
2022-11-22T16:44:14.526Z,25.47
2022-11-22T16:46:41.944Z,24.63
2022-11-22T16:49:22.067Z,24.27
2022-11-22T16:51:50.956Z,23.17
2022-11-22T16:54:20.641Z,22.13
2022-11-22T16:56:48.279Z,23.73
2022-11-22T16:59:15.487Z,20.60
2022-11-22T17:01:44.075Z,24.23
2022-11-22T17:04:25.219Z,24.23
2022-11-22T17:06:52.790Z,24.53
2022-11-22T17:09:20.047Z,24.70
2022-11-22T17:11:47.249Z,22.63
2022-11-22T17:14:16.742Z,23.57
2022-11-22T17:16:45.800Z,22.70
2022-11-22T17:19:37.443Z,24.87
2022-11-22T17:22:00.795Z,22.93
2022-11-22T17:24:29.208Z,23.70
2022-11-22T17:26:56.916Z,23.40
2022-11-22T17:32:13.618Z,22.57
2022-11-22T17:34:40.634Z,23.50
2022-11-22T17:37:13.893Z,22.40
2022-11-22T17:39:41.401Z,22.07
2022-11-22T17:42:08.463Z,23.70
2022-11-22T17:44:35.466Z,22.07
2022-11-22T17:47:02.833Z,21.97
2022-11-22T17:49:30.178Z,22.20
2022-11-22T17:51:57.399Z,23.17
2022-11-22T17:54:24.461Z,23.53
2022-11-22T17:56:51.544Z,21.87
2022-11-22T17:59:20.080Z,23.67
2022-11-22T18:01:47.184Z,22.73
2022-11-22T18:04:14.627Z,22.20
2022-11-22T18:06:41.800Z,22.90
2022-11-22T18:09:08.820Z,24.07
2022-11-22T18:11:35.881Z,22.87
2022-11-22T18:14:02.827Z,23.50
2022-11-22T18:16:31.101Z,24.13
2022-11-22T18:19:00.361Z,23.47
2022-11-22T18:21:29.919Z,23.93
2022-11-22T18:23:59.096Z,22.10
2022-11-22T18:26:42.856Z,24.23
2022-11-22T18:32:01.145Z,23.27
2022-11-22T18:34:29.040Z,22.47
2022-11-22T18:37:04.894Z,24.57
2022-11-22T18:39:39.550Z,23.57
2022-11-22T18:42:16.882Z,22.63
2022-11-22T18:44:43.918Z,23.27
2022-11-22T18:47:13.936Z,24.40
2022-11-22T18:49:40.995Z,19.83
2022-11-22T18:52:09.738Z,24.77
2022-11-22T18:54:38.996Z,23.87
2022-11-22T18:57:06.007Z,21.93
2022-11-22T18:59:33.383Z,22.97
2022-11-22T19:02:00.480Z,23.30
2022-11-22T19:04:27.588Z,25.30
2022-11-22T19:06:55.422Z,24.17
2022-11-22T19:09:22.413Z,26.17
2022-11-22T19:11:51.841Z,25.80
2022-11-22T19:14:20.306Z,23.53
2022-11-22T19:16:47.261Z,23.80
2022-11-22T19:19:14.383Z,23.00
2022-11-22T19:21:41.391Z,25.23
2022-11-22T19:24:08.681Z,21.47
2022-11-22T19:26:35.782Z,24.23
2022-11-22T19:29:04.746Z,23.77
2022-11-22T19:31:32.484Z,24.07
2022-11-22T19:34:00.138Z,26.10
2022-11-22T19:36:36.394Z,23.73
2022-11-22T19:39:13.145Z,25.27
2022-11-22T19:41:44.912Z,22.57
2022-11-22T19:44:12.453Z,24.33
2022-11-22T19:46:41.390Z,22.33
2022-11-22T19:49:10.029Z,24.33
2022-11-22T19:51:37.803Z,24.07
2022-11-22T19:54:05.637Z,22.77
2022-11-22T19:56:38.280Z,22.27
2022-11-22T19:59:10.478Z,21.23
2022-11-22T20:01:40.812Z,21.93
2022-11-22T20:04:08.609Z,27.03
2022-11-22T20:06:36.654Z,25.07
2022-11-22T20:09:10.818Z,23.73
2022-11-22T20:11:42.169Z,25.40
2022-11-22T20:14:10.099Z,22.43
2022-11-22T20:16:41.592Z,24.43
2022-11-22T20:19:11.243Z,25.53
2022-11-22T20:21:39.660Z,23.60
2022-11-22T20:24:07.402Z,25.43
2022-11-22T20:26:35.227Z,27.07
2022-11-22T20:29:07.079Z,25.07
2022-11-22T20:31:37.820Z,22.67
2022-11-22T20:34:05.494Z,22.97
2022-11-22T20:36:35.057Z,24.60
2022-11-22T20:39:08.335Z,25.17
2022-11-22T20:41:37.199Z,25.00
2022-11-22T20:44:04.620Z,24.87
2022-11-22T20:46:31.620Z,25.30
2022-11-22T20:48:58.636Z,24.57
2022-11-22T20:51:28.212Z,23.00
2022-11-22T20:53:56.485Z,26.40
2022-11-22T20:56:24.384Z,22.60
2022-11-22T20:58:52.254Z,27.80
2022-11-22T21:01:26.617Z,25.60
2022-11-22T21:03:54.762Z,23.13
2022-11-22T21:06:24.571Z,24.70
2022-11-22T21:08:51.925Z,25.07
2022-11-22T21:11:28.627Z,26.07
2022-11-22T21:13:57.285Z,22.27
2022-11-22T21:16:27.954Z,24.73
2022-11-22T21:19:01.963Z,24.83
2022-11-22T21:21:30.660Z,25.77
2022-11-22T21:24:01.805Z,23.10
2022-11-22T21:26:29.588Z,23.43
2022-11-22T21:28:57.379Z,23.90
2022-11-22T21:31:25.293Z,24.83
2022-11-22T21:33:52.577Z,24.00
2022-11-22T21:36:20.696Z,24.60
2022-11-22T21:38:48.290Z,26.00
2022-11-22T21:44:10.501Z,24.93
2022-11-22T21:46:37.873Z,24.97
2022-11-22T21:49:04.973Z,25.90
2022-11-22T21:51:32.331Z,23.17
2022-11-22T21:54:01.799Z,23.53
2022-11-22T21:56:29.787Z,23.00
2022-11-22T21:58:57.111Z,25.70
2022-11-22T22:01:24.782Z,25.43
2022-11-22T22:03:52.600Z,21.03
2022-11-22T22:06:20.110Z,27.33
2022-11-22T22:08:47.297Z,26.90
2022-11-22T22:11:14.644Z,25.80
2022-11-22T22:13:41.652Z,26.20
2022-11-22T22:16:15.265Z,24.27
2022-11-22T22:18:43.302Z,26.30
2022-11-22T22:21:12.891Z,28.83
2022-11-22T22:23:41.920Z,25.97
2022-11-22T22:26:13.562Z,25.97
2022-11-22T22:28:41.252Z,27.27
2022-11-22T22:31:17.122Z,26.80
2022-11-22T22:33:45.613Z,27.40
2022-11-22T22:36:13.313Z,27.97
2022-11-22T22:38:40.819Z,26.93
2022-11-22T22:41:13.538Z,25.63
2022-11-22T22:43:45.197Z,28.03
2022-11-22T22:46:24.751Z,26.50
2022-11-22T22:48:53.307Z,24.57
2022-11-22T22:51:31.651Z,25.40
2022-11-22T22:54:00.490Z,25.70
2022-11-22T22:56:30.468Z,27.53
2022-11-22T22:59:00.756Z,24.47
2022-11-22T23:01:31.299Z,25.60
2022-11-22T23:04:00.947Z,22.33
2022-11-22T23:06:35.477Z,26.57
2022-11-22T23:09:08.885Z,23.70
2022-11-22T23:11:55.675Z,27.57
2022-11-22T23:14:29.948Z,27.30
2022-11-22T23:16:58.185Z,24.53
2022-11-22T23:19:26.924Z,27.40
2022-11-22T23:21:55.100Z,22.43
2022-11-22T23:24:22.051Z,27.60
2022-11-22T23:26:49.102Z,28.90
2022-11-22T23:29:16.203Z,28.27
2022-11-22T23:31:43.210Z,26.80
2022-11-22T23:34:11.833Z,27.17
2022-11-22T23:36:41.004Z,25.73
2022-11-22T23:39:09.382Z,28.97
2022-11-22T23:41:36.555Z,29.90
2022-11-22T23:44:03.752Z,28.50
2022-11-22T23:46:30.818Z,27.97
2022-11-22T23:49:01.151Z,28.70
2022-11-22T23:51:31.313Z,26.67
2022-11-22T23:54:03.111Z,28.70
2022-11-22T23:56:32.932Z,25.27
2022-11-22T23:59:01.439Z,22.50
